Time;durP1;ratioP1;P1;durP2;ratioP2;P2;SDS_P1;SDS_P2;PMS_P1;PMS_P2;Temp;Humidity;BMP_temperature;BMP_pressure;BME280_temperature;BME280_humidity;BME280_pressure;Samples;Min_cycle;Max_cycle;Signal;HPM_P1;HPM_P2
2024/03/19 00:00:36;;;;;;;1.67;1.58;;;;;;;7.07;42.66;100067.37;4466894;31;33794;-84
2024/03/19 00:03:03;;;;;;;0.50;0.50;;;;;;;6.73;43.83;100080.47;4462237;31;34227;-84
2024/03/19 00:05:29;;;;;;;0.57;0.47;;;;;;;6.75;43.68;100070.81;4455515;31;34162;-83
2024/03/19 00:07:56;;;;;;;0.47;0.45;;;;;;;6.96;42.61;100067.66;4457820;31;31445;-83
2024/03/19 00:10:24;;;;;;;0.10;0.10;;;;;;;6.85;43.21;100074.94;4485925;31;33896;-83
2024/03/19 00:12:51;;;;;;;0.00;0.00;;;;;;;6.65;43.39;100080.66;4467111;31;33066;-83
2024/03/19 00:15:17;;;;;;;0.00;0.00;;;;;;;6.88;42.98;100080.09;4483261;31;33869;-83
2024/03/19 00:17:45;;;;;;;0.35;0.30;;;;;;;7.03;42.38;100079.75;4456340;31;34362;-83
2024/03/19 00:20:12;;;;;;;0.00;0.00;;;;;;;6.88;42.70;100081.00;4465898;31;32630;-83
2024/03/19 00:22:38;;;;;;;8.68;1.48;;;;;;;6.79;43.15;100083.84;4480451;31;32116;-83
2024/03/19 00:25:06;;;;;;;2.83;0.77;;;;;;;6.79;42.78;100078.59;4446082;31;34567;-83
2024/03/19 00:27:32;;;;;;;0.60;0.60;;;;;;;6.72;43.19;100084.84;4481596;31;34638;-83
2024/03/19 00:30:00;;;;;;;0.00;0.00;;;;;;;6.81;43.32;100084.66;4461100;31;34087;-83
2024/03/19 00:32:27;;;;;;;0.10;0.10;;;;;;;6.72;43.52;100089.25;4469494;31;34115;-83
2024/03/19 00:34:54;;;;;;;0.50;0.50;;;;;;;6.74;43.47;100083.09;4484197;31;33463;-83
2024/03/19 00:37:21;;;;;;;0.20;0.20;;;;;;;6.78;43.17;100084.72;4457738;31;32631;-83
2024/03/19 00:39:48;;;;;;;0.00;0.00;;;;;;;6.66;43.56;100085.88;4465398;31;32720;-83
2024/03/19 00:42:14;;;;;;;0.10;0.10;;;;;;;6.77;43.39;100080.38;4473246;31;32415;-83
2024/03/19 00:44:40;;;;;;;0.00;0.00;;;;;;;6.86;43.43;100088.03;4479801;31;33935;-83
2024/03/19 00:47:07;;;;;;;0.90;0.32;;;;;;;6.83;43.64;100077.59;4474491;31;33419;-83
2024/03/19 00:49:34;;;;;;;0.30;0.30;;;;;;;6.77;43.69;100082.13;4467817;31;32340;-83
2024/03/19 00:52:00;;;;;;;0.13;0.13;;;;;;;6.74;43.46;100077.84;4459270;31;33597;-82
2024/03/19 00:54:27;;;;;;;0.15;0.15;;;;;;;6.79;43.37;100083.84;4456780;31;34777;-82
2024/03/19 00:56:54;;;;;;;0.15;0.15;;;;;;;6.78;43.34;100084.72;4473757;31;32896;-82
2024/03/19 00:59:20;;;;;;;0.13;0.13;;;;;;;6.70;43.38;100080.56;4464831;31;33249;-83
2024/03/19 01:01:47;;;;;;;0.10;0.10;;;;;;;6.81;43.36;100082.03;4468212;31;33067;-82
2024/03/19 01:04:13;;;;;;;0.10;0.10;;;;;;;6.61;43.63;100084.25;4483648;31;32862;-82
2024/03/19 01:06:40;;;;;;;0.37;0.37;;;;;;;6.78;43.63;100079.47;4462822;31;32858;-82
2024/03/19 01:09:12;;;;;;;0.10;0.10;;;;;;;6.90;42.88;100079.19;4462723;31;33040;-82
2024/03/19 01:11:39;;;;;;;0.88;0.88;;;;;;;6.87;43.24;100083.63;4472699;31;33742;-82
2024/03/19 01:14:05;;;;;;;0.35;0.35;;;;;;;7.01;43.25;100073.66;4478086;31;33138;-82
2024/03/19 01:16:33;;;;;;;0.00;0.00;;;;;;;6.99;43.31;100077.22;4470791;31;35325;-82
2024/03/19 01:18:59;;;;;;;0.10;0.10;;;;;;;6.89;43.63;100074.84;4469945;31;33820;-82
2024/03/19 01:21:26;;;;;;;0.10;0.10;;;;;;;6.81;43.63;100079.41;4474545;31;33781;-82
2024/03/19 01:23:53;;;;;;;1.25;0.98;;;;;;;6.79;43.66;100078.59;4472070;31;34281;-82
2024/03/19 01:26:20;;;;;;;0.15;0.15;;;;;;;6.80;43.48;100077.69;4468537;31;33022;-83
2024/03/19 01:28:46;;;;;;;1.00;0.90;;;;;;;6.89;43.38;100074.84;4463223;31;34230;-82
2024/03/19 01:31:13;;;;;;;0.05;0.05;;;;;;;6.87;43.82;100074.00;4441883;31;34843;-82
2024/03/19 01:33:40;;;;;;;0.15;0.15;;;;;;;6.86;43.54;100077.53;4484384;31;33544;-82
2024/03/19 01:36:07;;;;;;;2.08;1.02;;;;;;;6.71;43.78;100085.75;4469765;31;34267;-82
2024/03/19 01:38:34;;;;;;;0.40;0.40;;;;;;;6.85;43.34;100082.81;4474022;31;34742;-83
2024/03/19 01:41:00;;;;;;;0.00;0.00;;;;;;;6.74;43.76;100083.09;4468158;31;32666;-83
2024/03/19 01:43:26;;;;;;;0.00;0.00;;;;;;;6.68;43.99;100083.19;4481677;31;34064;-82
2024/03/19 01:46:05;;;;;;;0.60;0.60;;;;;;;6.61;44.27;100081.63;4466624;31;34091;-82
2024/03/19 01:48:36;;;;;;;1.37;0.95;;;;;;;6.72;43.98;100084.84;4485694;31;34449;-82
2024/03/19 01:51:03;;;;;;;0.00;0.00;;;;;;;6.99;42.99;100080.72;4470854;31;32339;-82
2024/03/19 01:53:30;;;;;;;0.00;0.00;;;;;;;6.86;43.32;100087.16;4475054;31;33264;-82
2024/03/19 01:55:57;;;;;;;0.00;0.00;;;;;;;6.76;43.76;100080.41;4475897;31;32570;-84
2024/03/19 01:58:24;;;;;;;0.00;0.00;;;;;;;6.82;44.19;100081.13;4460221;31;34005;-84
2024/03/19 02:00:50;;;;;;;0.10;0.10;;;;;;;6.88;43.98;100075.75;4472787;31;33225;-83
2024/03/19 02:03:18;;;;;;;0.65;0.65;;;;;;;7.01;43.83;100067.53;4462530;31;33725;-84
2024/03/19 02:05:46;;;;;;;0.32;0.32;;;;;;;6.98;43.70;100070.22;4472724;31;34081;-83
2024/03/19 02:08:13;;;;;;;0.28;0.28;;;;;;;7.00;43.41;100071.06;4486186;31;34571;-83
2024/03/19 02:10:41;;;;;;;0.00;0.00;;;;;;;7.17;43.42;100066.28;4441305;31;31927;-83
2024/03/19 02:13:08;;;;;;;0.17;0.17;;;;;;;7.01;44.09;100072.78;4491947;31;33583;-83
2024/03/19 02:15:34;;;;;;;0.15;0.15;;;;;;;7.25;43.03;100069.53;4473179;31;34282;-83
2024/03/19 02:18:02;;;;;;;2.10;0.35;;;;;;;7.30;42.72;100072.06;4442833;31;34749;-83
2024/03/19 02:20:29;;;;;;;1.73;1.27;;;;;;;7.13;42.68;100072.50;4457538;31;32546;-83
2024/03/19 02:22:55;;;;;;;0.00;0.00;;;;;;;7.27;42.58;100061.66;4473133;31;33345;-83
2024/03/19 02:25:22;;;;;;;0.37;0.37;;;;;;;7.27;42.19;100065.13;4471166;31;33122;-83
2024/03/19 02:27:49;;;;;;;0.20;0.20;;;;;;;7.14;42.52;100071.59;4469677;31;33008;-83
2024/03/19 02:30:15;;;;;;;0.30;0.30;;;;;;;6.88;43.27;100075.75;4473776;31;33324;-83
2024/03/19 02:32:42;;;;;;;0.10;0.10;;;;;;;7.02;43.10;100069.25;4448337;31;35639;-83
2024/03/19 02:35:09;;;;;;;0.10;0.10;;;;;;;6.95;42.79;100075.59;4490521;31;33663;-83
2024/03/19 02:37:36;;;;;;;0.08;0.08;;;;;;;7.02;42.83;100074.50;4470458;31;34030;-83
2024/03/19 02:40:05;;;;;;;0.17;0.17;;;;;;;6.81;42.66;100079.41;4457895;31;34237;-83
2024/03/19 02:42:32;;;;;;;0.00;0.00;;;;;;;7.10;41.92;100081.31;4468897;31;33265;-83
2024/03/19 02:44:59;;;;;;;0.00;0.00;;;;;;;6.98;41.85;100075.47;4471723;31;34208;-83
2024/03/19 02:47:26;;;;;;;0.37;0.37;;;;;;;7.14;41.71;100082.09;4466622;31;35249;-83
2024/03/19 02:49:52;;;;;;;0.30;0.30;;;;;;;7.09;41.80;100083.97;4463054;31;33329;-83
2024/03/19 02:52:19;;;;;;;0.00;0.00;;;;;;;7.00;42.37;100094.72;4474460;31;32985;-83
2024/03/19 02:54:46;;;;;;;0.30;0.30;;;;;;;7.00;42.53;100095.56;4459772;31;35372;-83
2024/03/19 02:57:12;;;;;;;0.08;0.05;;;;;;;7.23;41.63;100092.38;4464608;31;34035;-83
2024/03/19 02:59:39;;;;;;;0.00;0.00;;;;;;;7.67;40.20;100091.19;4462463;31;32785;-83
2024/03/19 03:02:05;;;;;;;0.03;0.03;;;;;;;7.08;41.69;100098.03;4479908;31;34386;-83
2024/03/19 03:04:32;;;;;;;0.00;0.00;;;;;;;7.07;41.58;100104.13;4454022;31;33109;-83
2024/03/19 03:06:58;;;;;;;0.10;0.10;;;;;;;7.17;41.51;100096.03;4483205;31;34146;-83
2024/03/19 03:09:25;;;;;;;0.20;0.20;;;;;;;7.18;41.35;100104.75;4463010;31;32447;-83
2024/03/19 03:11:52;;;;;;;0.52;0.52;;;;;;;7.36;40.99;100104.31;4488012;31;34271;-82
2024/03/19 03:14:19;;;;;;;0.13;0.13;;;;;;;7.26;41.24;100108.03;4486868;31;32989;-82
2024/03/19 03:16:45;;;;;;;0.13;0.13;;;;;;;7.18;41.81;100105.63;4451133;31;34123;-82
2024/03/19 03:19:13;;;;;;;0.10;0.10;;;;;;;7.18;41.94;100104.75;4464288;31;32237;-84
2024/03/19 03:21:39;;;;;;;0.55;0.55;;;;;;;7.40;41.85;100110.31;4468326;31;33089;-84
2024/03/19 03:24:06;;;;;;;0.00;0.00;;;;;;;7.26;41.74;100113.28;4469265;31;34524;-84
2024/03/19 03:26:33;;;;;;;0.15;0.15;;;;;;;7.15;42.37;100118.81;4475348;31;32831;-84
2024/03/19 03:28:59;;;;;;;0.00;0.00;;;;;;;7.29;42.21;100115.84;4484591;31;33077;-84
2024/03/19 03:31:27;;;;;;;0.43;0.43;;;;;;;7.31;41.97;100118.44;4458550;31;34709;-83
2024/03/19 03:33:53;;;;;;;0.05;0.05;;;;;;;7.24;42.13;100116.88;4476137;31;32606;-83
2024/03/19 03:36:21;;;;;;;0.00;0.00;;;;;;;7.15;42.72;100125.84;4464955;31;33771;-82
2024/03/19 03:38:48;;;;;;;0.00;0.00;;;;;;;7.25;42.78;100126.47;4459709;31;32995;-83
2024/03/19 03:41:15;;;;;;;0.00;0.00;;;;;;;7.13;43.70;100127.66;4466044;31;32786;-82
2024/03/19 03:43:41;;;;;;;2.30;0.98;;;;;;;7.27;43.05;100130.81;4468234;31;33575;-82
2024/03/19 03:46:10;;;;;;;0.10;0.10;;;;;;;7.26;43.16;100126.41;4474373;31;35070;-81
2024/03/19 03:48:37;;;;;;;0.08;0.08;;;;;;;7.17;43.34;100132.78;4461902;31;32521;-84
2024/03/19 03:51:03;;;;;;;0.00;0.00;;;;;;;7.40;43.24;100136.59;4472200;31;33923;-84
2024/03/19 03:53:30;;;;;;;0.52;0.52;;;;;;;7.55;42.05;100135.31;4444294;31;35006;-84
2024/03/19 03:55:57;;;;;;;1.75;0.80;;;;;;;7.46;42.31;100135.59;4467381;31;34049;-84
2024/03/19 03:58:23;;;;;;;0.13;0.13;;;;;;;7.31;43.06;100137.72;4469162;31;33542;-84
2024/03/19 04:00:50;;;;;;;0.00;0.00;;;;;;;7.35;43.21;100152.47;4460496;31;35776;-84
2024/03/19 04:03:17;;;;;;;0.00;0.00;;;;;;;7.59;42.60;100148.34;4465686;31;33714;-83
2024/03/19 04:05:47;;;;;;;0.00;0.00;;;;;;;7.36;43.16;100158.59;4489154;31;33896;-84
2024/03/19 04:08:13;;;;;;;0.10;0.10;;;;;;;7.31;43.47;100157.81;4468938;31;32304;-83
2024/03/19 04:10:40;;;;;;;0.17;0.17;;;;;;;7.20;43.31;100158.09;4468787;31;34503;-83
2024/03/19 04:13:07;;;;;;;0.43;0.43;;;;;;;7.13;43.79;100161.78;4463562;31;33256;-83
2024/03/19 04:15:33;;;;;;;0.30;0.25;;;;;;;7.23;43.92;100157.19;4466430;31;33971;-83
2024/03/19 04:18:00;;;;;;;0.00;0.00;;;;;;;7.14;44.31;100155.63;4464216;31;32996;-82
2024/03/19 04:20:27;;;;;;;4.32;1.10;;;;;;;7.15;44.75;100160.84;4475745;31;31448;-82
2024/03/19 04:22:53;;;;;;;0.00;0.00;;;;;;;7.17;44.51;100166.94;4463687;31;33196;-82
2024/03/19 04:25:20;;;;;;;0.00;0.00;;;;;;;7.07;45.37;100165.41;4472353;31;34063;-83
2024/03/19 04:27:47;;;;;;;0.00;0.00;;;;;;;7.09;45.59;100175.87;4484102;31;34073;-84
2024/03/19 04:30:13;;;;;;;2.35;0.45;;;;;;;7.21;45.18;100167.69;4458728;31;32708;-83
2024/03/19 04:32:40;;;;;;;0.35;0.35;;;;;;;7.31;44.51;100169.22;4457615;31;34710;-83
2024/03/19 04:35:07;;;;;;;5.05;1.45;;;;;;;7.26;44.55;100171.06;4470421;31;33474;-83
2024/03/19 04:37:35;;;;;;;13.15;3.10;;;;;;;7.44;43.88;100175.87;4470455;31;32795;-83
2024/03/19 04:40:04;;;;;;;5.82;1.85;;;;;;;7.12;44.72;100179.31;4457615;31;34471;-84
2024/03/19 04:42:30;;;;;;;0.15;0.15;;;;;;;7.09;45.51;100183.75;4465402;31;33823;-84
2024/03/19 04:44:57;;;;;;;7.68;5.53;;;;;;;7.12;45.40;100183.66;4475786;31;32888;-83
2024/03/19 04:47:24;;;;;;;1.55;1.48;;;;;;;7.03;45.62;100189.16;4471032;31;34346;-84
2024/03/19 04:49:50;;;;;;;1.60;1.55;;;;;;;7.27;44.80;100188.59;4482164;31;32408;-83
2024/03/19 04:52:17;;;;;;;10.18;4.00;;;;;;;7.12;45.25;100194.16;4470503;32;34092;-83
2024/03/19 04:54:43;;;;;;;2.08;1.98;;;;;;;7.19;45.50;100201.03;4453458;31;32822;-83
2024/03/19 04:57:10;;;;;;;2.85;2.53;;;;;;;7.16;45.53;100198.47;4468913;31;32442;-83
2024/03/19 04:59:37;;;;;;;3.40;1.30;;;;;;;7.15;45.71;100209.87;4468818;31;32604;-83
2024/03/19 05:02:04;;;;;;;1.10;0.45;;;;;;;7.16;45.89;100211.59;4467210;31;34058;-83
2024/03/19 05:04:32;;;;;;;5.22;0.85;;;;;;;7.19;45.84;100215.03;4468788;31;32528;-84
2024/03/19 05:06:58;;;;;;;1.75;1.65;;;;;;;7.15;45.92;100209.87;4471275;31;33831;-84
2024/03/19 05:09:25;;;;;;;1.10;0.57;;;;;;;7.08;46.04;100219.66;4455803;31;35548;-84
2024/03/19 05:11:52;;;;;;;1.20;1.10;;;;;;;7.19;45.81;100216.78;4471153;31;33105;-84
2024/03/19 05:14:19;;;;;;;2.65;1.10;;;;;;;7.06;46.26;100225.84;4467025;31;33289;-84
2024/03/19 05:16:46;;;;;;;0.82;0.82;;;;;;;7.01;46.17;100222.44;4470046;31;33927;-84
2024/03/19 05:19:12;;;;;;;1.75;1.45;;;;;;;7.09;46.12;100225.78;4483460;31;34104;-84
2024/03/19 05:21:40;;;;;;;0.82;0.82;;;;;;;7.06;46.17;100217.97;4475393;31;33999;-84
2024/03/19 05:24:07;;;;;;;0.80;0.80;;;;;;;6.90;46.69;100225.31;4458549;31;33977;-84
2024/03/19 05:26:33;;;;;;;0.75;0.75;;;;;;;6.95;46.46;100233.97;4467966;31;33583;-84
2024/03/19 05:29:00;;;;;;;2.92;0.70;;;;;;;6.89;46.88;100224.47;4460307;31;32621;-83
2024/03/19 05:31:28;;;;;;;0.30;0.30;;;;;;;6.82;47.21;100235.97;4477477;31;32633;-83
2024/03/19 05:33:56;;;;;;;0.90;0.50;;;;;;;6.76;47.37;100238.72;4479359;31;33431;-83
2024/03/19 05:36:23;;;;;;;0.30;0.30;;;;;;;6.78;46.96;100239.56;4486273;31;33407;-84
2024/03/19 05:38:50;;;;;;;0.00;0.00;;;;;;;6.86;46.97;100242.03;4452029;31;34138;-83
2024/03/19 05:41:16;;;;;;;0.10;0.10;;;;;;;6.90;46.62;100252.44;4472729;31;34752;-84
2024/03/19 05:43:45;;;;;;;3.20;1.27;;;;;;;6.97;46.63;100247.03;4486150;31;33490;-83
2024/03/19 05:46:12;;;;;;;1.10;1.00;;;;;;;6.88;46.98;100246.38;4460443;31;34214;-84
2024/03/19 05:48:39;;;;;;;0.00;0.00;;;;;;;7.05;46.81;100247.75;4459667;31;32572;-84
2024/03/19 05:51:09;;;;;;;0.50;0.50;;;;;;;6.95;47.34;100260.22;4485350;31;33613;-83
2024/03/19 05:53:37;;;;;;;0.20;0.20;;;;;;;7.09;46.77;100252.03;4451881;31;35259;-83
2024/03/19 05:56:04;;;;;;;0.10;0.10;;;;;;;7.05;46.90;100253.84;4487763;31;34146;-82
2024/03/19 05:58:31;;;;;;;0.00;0.00;;;;;;;7.11;46.89;100261.59;4470178;31;32667;-83
2024/03/19 06:01:03;;;;;;;0.00;0.00;;;;;;;7.22;46.80;100266.63;4446858;31;34307;-83
2024/03/19 06:03:34;;;;;;;1.17;1.00;;;;;;;7.03;46.79;100274.03;4449082;31;34259;-82
2024/03/19 06:06:08;;;;;;;1.87;1.37;;;;;;;7.14;46.61;100276.44;4468786;31;32318;-83
2024/03/19 06:08:36;;;;;;;0.03;0.03;;;;;;;7.15;46.56;100267.66;4453493;31;32551;-83
2024/03/19 06:11:03;;;;;;;0.20;0.20;;;;;;;7.61;44.83;100271.84;4473584;31;32948;-82
2024/03/19 06:13:30;;;;;;;0.57;0.55;;;;;;;7.52;44.51;100269.44;4471222;31;34027;-82
2024/03/19 06:15:57;;;;;;;0.30;0.30;;;;;;;7.60;44.73;100267.50;4488196;31;34061;-83
2024/03/19 06:18:24;;;;;;;0.70;0.70;;;;;;;7.42;44.81;100271.41;4470572;31;33150;-83
2024/03/19 06:20:50;;;;;;;0.30;0.30;;;;;;;7.32;44.58;100269.91;4471831;31;32525;-82
2024/03/19 06:23:17;;;;;;;4.85;1.52;;;;;;;7.25;44.57;100271.78;4471876;31;35351;-82
2024/03/19 06:25:43;;;;;;;1.85;0.95;;;;;;;7.46;44.00;100280.09;4472980;31;33372;-82
2024/03/19 06:28:10;;;;;;;0.68;0.68;;;;;;;7.32;44.83;100275.16;4483484;31;33818;-83
2024/03/19 06:30:37;;;;;;;0.00;0.00;;;;;;;7.51;44.56;100280.84;4453297;31;33276;-83
2024/03/19 06:33:04;;;;;;;0.30;0.28;;;;;;;7.55;44.17;100278.13;4468734;31;33067;-83
2024/03/19 06:35:32;;;;;;;0.20;0.20;;;;;;;7.55;45.04;100282.47;4473228;31;31373;-83
2024/03/19 06:38:02;;;;;;;0.00;0.00;;;;;;;7.86;43.50;100293.12;4456929;31;34335;-84
2024/03/19 06:40:30;;;;;;;1.35;0.85;;;;;;;7.79;43.97;100289.81;4464489;31;32676;-83
2024/03/19 06:42:57;;;;;;;1.55;1.23;;;;;;;7.72;43.99;100288.22;4470462;31;33206;-83
2024/03/19 06:45:26;;;;;;;0.32;0.32;;;;;;;7.95;43.80;100296.41;4472681;31;35428;-83
2024/03/19 06:47:53;;;;;;;0.77;0.77;;;;;;;8.28;42.88;100301.69;4470510;31;34315;-84
2024/03/19 06:50:20;;;;;;;0.00;0.00;;;;;;;8.30;42.83;100293.75;4465271;31;32941;-80
2024/03/19 06:52:47;;;;;;;1.65;1.00;;;;;;;8.11;43.56;100307.38;4463481;31;32239;-80
2024/03/19 06:55:15;;;;;;;0.35;0.35;;;;;;;7.75;44.71;100303.91;4458212;31;32643;-80
2024/03/19 06:57:42;;;;;;;2.05;1.58;;;;;;;7.85;44.04;100302.78;4464787;31;33488;-80
2024/03/19 07:00:19;;;;;;;0.88;0.88;;;;;;;7.99;44.14;100306.84;4463547;31;35817;-80
2024/03/19 07:02:46;;;;;;;0.90;0.90;;;;;;;7.91;44.01;100305.25;4483979;31;34141;-80
2024/03/19 07:05:13;;;;;;;0.03;0.03;;;;;;;7.89;44.18;100309.72;4460028;31;32999;-80
2024/03/19 07:07:40;;;;;;;0.75;0.20;;;;;;;7.91;44.63;100312.28;4463497;31;33697;-80
2024/03/19 07:10:10;;;;;;;0.15;0.15;;;;;;;8.04;44.62;100307.59;4472339;31;33922;-80
2024/03/19 07:12:39;;;;;;;0.90;0.35;;;;;;;8.14;44.05;100309.09;4468379;31;34691;-80
2024/03/19 07:15:10;;;;;;;2.20;0.73;;;;;;;8.31;42.96;100320.03;4473633;31;31838;-80
2024/03/19 07:17:38;;;;;;;0.97;0.93;;;;;;;8.33;43.10;100320.84;4470022;31;34179;-80
2024/03/19 07:20:09;;;;;;;0.10;0.10;;;;;;;8.66;41.71;100323.53;4480727;31;34680;-80
2024/03/19 07:22:37;;;;;;;0.40;0.40;;;;;;;8.38;42.55;100328.66;4470884;31;34649;-80
2024/03/19 07:25:07;;;;;;;0.88;0.80;;;;;;;8.33;42.19;100325.25;4470429;31;32848;-80
2024/03/19 07:27:39;;;;;;;0.75;0.75;;;;;;;8.20;43.05;100329.97;4471842;31;34432;-80
2024/03/19 07:30:09;;;;;;;1.35;0.55;;;;;;;8.28;42.46;100328.00;4488620;31;33677;-80
2024/03/19 07:32:35;;;;;;;1.50;0.60;;;;;;;8.11;43.59;100332.81;4476916;31;34575;-80
2024/03/19 07:35:04;;;;;;;0.75;0.55;;;;;;;8.15;43.75;100337.09;4467481;31;32776;-80
2024/03/19 07:37:31;;;;;;;0.17;0.05;;;;;;;8.43;42.78;100330.25;4459224;31;34086;-80
2024/03/19 07:39:58;;;;;;;0.00;0.00;;;;;;;8.41;42.96;100334.72;4484105;31;32741;-80
2024/03/19 07:42:24;;;;;;;0.20;0.20;;;;;;;8.72;42.23;100332.09;4458712;31;32129;-80
2024/03/19 07:44:52;;;;;;;1.48;1.23;;;;;;;8.53;43.26;100333.50;4471185;31;33807;-80
2024/03/19 07:47:19;;;;;;;1.00;0.85;;;;;;;8.60;42.89;100342.13;4487060;31;34622;-81
2024/03/19 07:49:46;;;;;;;0.30;0.30;;;;;;;8.85;40.86;100335.28;4466825;31;33269;-80
2024/03/19 07:52:16;;;;;;;1.08;0.57;;;;;;;9.10;40.83;100339.84;4466685;31;33918;-80
2024/03/19 07:54:43;;;;;;;0.60;0.60;;;;;;;9.03;40.08;100348.84;4483891;31;33316;-80
2024/03/19 07:57:09;;;;;;;0.10;0.10;;;;;;;8.64;41.82;100346.38;4452021;31;32948;-80
2024/03/19 07:59:36;;;;;;;0.80;0.25;;;;;;;8.94;41.77;100345.56;4454733;31;33779;-80
2024/03/19 08:02:04;;;;;;;0.10;0.10;;;;;;;9.34;40.51;100344.38;4458821;31;33347;-80
2024/03/19 08:04:31;;;;;;;0.00;0.00;;;;;;;8.81;41.69;100349.44;4463730;31;33694;-79
2024/03/19 08:06:58;;;;;;;0.68;0.65;;;;;;;8.90;41.67;100351.81;4485066;31;33726;-80
2024/03/19 08:09:24;;;;;;;0.32;0.32;;;;;;;8.98;41.21;100352.47;4470360;31;33863;-80
2024/03/19 08:11:51;;;;;;;0.85;0.65;;;;;;;8.96;40.82;100349.00;4462411;31;34487;-80
2024/03/19 08:14:18;;;;;;;0.88;0.60;;;;;;;9.18;40.37;100353.66;4463431;31;33455;-80
2024/03/19 08:16:44;;;;;;;0.00;0.00;;;;;;;9.08;40.88;100358.34;4468663;31;33122;-80
2024/03/19 08:19:11;;;;;;;0.40;0.40;;;;;;;9.08;40.87;100366.22;4466142;31;35050;-80
2024/03/19 08:21:39;;;;;;;1.48;0.55;;;;;;;9.51;38.98;100367.59;4455672;31;33187;-80
2024/03/19 08:24:05;;;;;;;0.00;0.00;;;;;;;9.59;39.41;100360.34;4472111;31;32586;-80
2024/03/19 08:26:34;;;;;;;0.90;0.90;;;;;;;9.19;38.97;100355.37;4483638;31;34217;-80
2024/03/19 08:29:01;;;;;;;0.20;0.20;;;;;;;9.72;39.31;100356.38;4470974;31;33482;-80
2024/03/19 08:31:28;;;;;;;0.22;0.22;;;;;;;9.98;37.45;100362.63;4470617;31;32303;-80
2024/03/19 08:33:55;;;;;;;0.20;0.20;;;;;;;9.47;38.22;100360.69;4477731;31;34651;-80
2024/03/19 08:36:21;;;;;;;0.05;0.05;;;;;;;9.53;39.34;100362.28;4474545;31;33712;-80
2024/03/19 08:38:47;;;;;;;0.20;0.20;;;;;;;9.83;37.82;100363.97;4478669;31;33979;-80
2024/03/19 08:41:14;;;;;;;0.10;0.10;;;;;;;9.74;37.58;100370.41;4461315;31;35169;-80
2024/03/19 08:43:45;;;;;;;0.70;0.70;;;;;;;9.74;38.02;100365.13;4471194;31;32192;-80
2024/03/19 08:46:14;;;;;;;0.10;0.10;;;;;;;10.01;37.43;100367.78;4472727;31;32841;-80
2024/03/19 08:48:41;;;;;;;0.30;0.30;;;;;;;9.85;38.93;100372.69;4450197;31;34970;-80
2024/03/19 08:51:07;;;;;;;0.05;0.05;;;;;;;10.21;36.78;100369.78;4486381;31;34544;-80
2024/03/19 08:53:34;;;;;;;0.22;0.17;;;;;;;9.71;37.68;100374.91;4465433;31;32675;-79
2024/03/19 08:56:01;;;;;;;0.70;0.62;;;;;;;9.82;38.26;100370.16;4455542;31;34257;-80
2024/03/19 08:58:27;;;;;;;0.30;0.30;;;;;;;9.79;37.37;100378.16;4483048;31;33707;-80
2024/03/19 09:00:54;;;;;;;0.70;0.70;;;;;;;10.01;38.17;100373.91;4479184;31;32492;-80
2024/03/19 09:03:21;;;;;;;0.40;0.40;;;;;;;10.51;36.94;100370.56;4475567;31;34345;-79
2024/03/19 09:05:58;;;;;;;0.30;0.30;;;;;;;10.62;36.42;100370.19;4473945;31;33781;-80
2024/03/19 09:08:26;;;;;;;0.60;0.57;;;;;;;9.97;36.73;100376.72;4454717;31;34579;-80
2024/03/19 09:10:54;;;;;;;1.35;1.25;;;;;;;9.69;37.74;100377.59;4473647;31;33014;-79
2024/03/19 09:13:21;;;;;;;0.40;0.35;;;;;;;10.12;37.73;100384.16;4469563;31;32983;-79
2024/03/19 09:15:48;;;;;;;0.35;0.25;;;;;;;10.37;38.44;100380.72;4478213;31;33845;-79
2024/03/19 09:18:15;;;;;;;0.15;0.15;;;;;;;10.76;35.84;100368.78;4467750;31;33019;-80
2024/03/19 09:20:42;;;;;;;0.10;0.10;;;;;;;10.27;37.10;100377.53;4468951;31;32828;-79
2024/03/19 09:23:09;;;;;;;2.37;0.90;;;;;;;9.91;36.63;100383.03;4474394;31;33390;-80
2024/03/19 09:25:36;;;;;;;0.00;0.00;;;;;;;10.57;33.07;100385.31;4474048;31;32653;-80
2024/03/19 09:28:03;;;;;;;1.25;0.10;;;;;;;9.92;32.06;100379.53;4462094;31;32900;-80
2024/03/19 09:30:30;;;;;;;0.15;0.15;;;;;;;10.36;30.67;100385.16;4477012;31;35326;-80
2024/03/19 09:32:57;;;;;;;0.30;0.30;;;;;;;10.80;31.56;100369.53;4457687;31;32863;-80
2024/03/19 09:35:25;;;;;;;0.00;0.00;;;;;;;11.03;30.15;100374.00;4473214;31;33125;-80
2024/03/19 09:37:52;;;;;;;0.00;0.00;;;;;;;11.06;30.69;100375.66;4458090;31;35727;-80
2024/03/19 09:40:19;;;;;;;0.43;0.43;;;;;;;11.12;29.45;100384.25;4460729;31;32961;-79
2024/03/19 09:42:46;;;;;;;0.95;0.90;;;;;;;11.09;28.95;100380.84;4473918;31;32961;-80
2024/03/19 09:45:27;;;;;;;0.32;0.32;;;;;;;10.80;30.70;100380.09;4476684;31;33346;-80
2024/03/19 09:47:57;;;;;;;0.15;0.10;;;;;;;10.50;30.80;100382.91;4465384;31;33279;-80
2024/03/19 09:50:25;;;;;;;0.13;0.13;;;;;;;10.35;30.30;100387.81;4473379;31;33064;-80
2024/03/19 09:52:57;;;;;;;0.15;0.10;;;;;;;10.22;30.54;100393.50;4489325;31;33526;-80
2024/03/19 09:55:26;;;;;;;0.40;0.30;;;;;;;10.25;30.88;100387.25;4473226;31;32816;-80
2024/03/19 09:57:58;;;;;;;0.03;0.03;;;;;;;10.45;31.82;100394.53;4485636;31;34075;-79
2024/03/19 10:00:26;;;;;;;0.00;0.00;;;;;;;10.69;31.36;100396.34;4466459;31;32917;-80
2024/03/19 10:02:53;;;;;;;0.10;0.10;;;;;;;10.65;31.19;100391.22;4460564;31;33891;-80
2024/03/19 10:05:21;;;;;;;0.28;0.28;;;;;;;10.37;31.73;100392.16;4475775;31;32500;-80
2024/03/19 10:07:49;;;;;;;0.05;0.05;;;;;;;10.66;29.94;100392.94;4464831;31;33482;-80
2024/03/19 10:10:17;;;;;;;0.30;0.30;;;;;;;11.10;31.39;100383.41;4464573;31;34743;-80
2024/03/19 10:12:44;;;;;;;0.08;0.08;;;;;;;11.05;30.05;100384.50;4476282;31;33069;-80
2024/03/19 10:15:21;;;;;;;1.90;0.45;;;;;;;11.33;29.99;100387.84;4461564;31;33110;-80
2024/03/19 10:17:48;;;;;;;0.25;0.20;;;;;;;11.41;30.10;100383.16;4481700;31;32726;-80
2024/03/19 10:20:18;;;;;;;0.22;0.22;;;;;;;11.74;28.69;100385.44;4472857;31;33956;-80
2024/03/19 10:22:45;;;;;;;0.62;0.43;;;;;;;12.08;28.67;100386.75;4485904;31;32899;-80
2024/03/19 10:25:16;;;;;;;0.05;0.05;;;;;;;11.94;28.38;100387.31;4452412;31;34758;-80
2024/03/19 10:27:44;;;;;;;1.85;0.73;;;;;;;11.92;28.76;100383.88;4466697;32;33923;-80
2024/03/19 10:30:14;;;;;;;0.65;0.52;;;;;;;11.62;29.70;100386.75;4457999;31;32774;-80
2024/03/19 10:32:42;;;;;;;0.50;0.47;;;;;;;11.62;29.77;100384.09;4457098;31;34398;-80
2024/03/19 10:35:16;;;;;;;2.08;0.77;;;;;;;11.32;30.52;100383.50;4471636;31;33509;-80
2024/03/19 10:37:48;;;;;;;0.22;0.22;;;;;;;11.59;29.93;100383.37;4480921;31;34549;-80
2024/03/19 10:40:17;;;;;;;0.20;0.20;;;;;;;12.09;29.32;100381.41;4462695;31;33046;-80
2024/03/19 10:42:47;;;;;;;0.03;0.03;;;;;;;11.91;29.29;100393.56;4460916;31;34536;-80
2024/03/19 10:45:19;;;;;;;0.00;0.00;;;;;;;11.29;31.34;100386.25;4469459;31;32646;-80
2024/03/19 10:47:49;;;;;;;0.28;0.25;;;;;;;11.47;30.61;100382.91;4472056;31;33713;-80
2024/03/19 10:50:18;;;;;;;0.10;0.10;;;;;;;11.61;30.67;100379.75;4459965;31;32743;-80
2024/03/19 10:52:47;;;;;;;1.73;1.62;;;;;;;11.61;30.52;100386.81;4480471;31;33057;-80
2024/03/19 10:55:15;;;;;;;0.20;0.10;;;;;;;11.41;29.26;100382.28;4471831;31;32477;-80
2024/03/19 10:57:44;;;;;;;0.22;0.22;;;;;;;11.63;29.17;100390.25;4469585;31;33448;-80
2024/03/19 11:00:22;;;;;;;0.65;0.47;;;;;;;11.52;30.18;100386.25;4460095;31;33115;-80
2024/03/19 11:02:50;;;;;;;0.22;0.22;;;;;;;11.85;29.48;100388.53;4479407;31;32459;-80
2024/03/19 11:05:21;;;;;;;0.45;0.45;;;;;;;11.98;28.64;100381.84;4472145;31;33806;-80
2024/03/19 11:07:49;;;;;;;2.05;0.98;;;;;;;12.33;28.89;100368.94;4458727;31;33794;-81
2024/03/19 11:10:31;;;;;;;0.50;0.50;;;;;;;12.44;28.71;100371.16;4478723;31;32981;-80
2024/03/19 11:13:09;;;;;;;0.68;0.65;;;;;;;12.38;29.27;100371.38;4468998;31;31993;-80
2024/03/19 11:15:37;;;;;;;0.00;0.00;;;;;;;12.24;29.13;100380.75;4448408;31;33115;-80
2024/03/19 11:18:13;;;;;;;0.82;0.60;;;;;;;12.53;29.03;100382.22;4486557;31;33894;-80
2024/03/19 11:20:45;;;;;;;0.50;0.50;;;;;;;12.47;28.04;100378.94;4483330;31;33353;-80
2024/03/19 11:23:14;;;;;;;0.10;0.10;;;;;;;12.41;29.36;100377.44;4482578;31;34043;-80
2024/03/19 11:25:49;;;;;;;0.05;0.05;;;;;;;12.83;29.13;100379.16;4469844;31;32302;-80
2024/03/19 11:28:30;;;;;;;0.40;0.40;;;;;;;13.05;27.90;100379.94;4478751;31;33749;-80
2024/03/19 11:31:06;;;;;;;0.70;0.70;;;;;;;12.46;29.23;100383.37;4461951;31;36205;-80
2024/03/19 11:33:34;;;;;;;0.20;0.20;;;;;;;12.59;28.59;100383.75;4460306;31;32340;-80